Time;durP1;ratioP1;P1;durP2;ratioP2;P2;SDS_P1;SDS_P2;PMS_P1;PMS_P2;Temp;Humidity;BMP_temperature;BMP_pressure;BME280_temperature;BME280_humidity;BME280_pressure;Samples;Min_cycle;Max_cycle;Signal;HPM_P1;HPM_P2
2023/03/05 00:00:44;;;;;;;65.47;35.03;;;;;;;;;;5029975;28;20037;-76
2023/03/05 00:03:10;;;;;;;70.43;36.58;;;;;;;;;;5030348;28;20064;-76
2023/03/05 00:05:36;;;;;;;68.55;37.25;;;;;;;;;;5017375;28;20053;-76
2023/03/05 00:08:02;;;;;;;77.75;41.05;;;;;;;;;;5025454;28;20045;-76
2023/03/05 00:10:28;;;;;;;68.05;36.53;;;;;;;;;;5027523;28;20069;-77
2023/03/05 00:12:54;;;;;;;62.60;34.63;;;;;;;;;;5020085;28;20077;-76
2023/03/05 00:15:20;;;;;;;67.28;34.47;;;;;;;;;;5029338;28;20822;-76
2023/03/05 00:17:46;;;;;;;67.53;36.22;;;;;;;;;;5032181;28;20091;-76
2023/03/05 00:20:12;;;;;;;71.20;38.67;;;;;;;;;;5025881;28;20026;-76
2023/03/05 00:22:38;;;;;;;71.07;35.00;;;;;;;;;;5028285;28;20065;-76
2023/03/05 00:25:05;;;;;;;66.03;33.75;;;;;;;;;;5029073;28;20033;-76
2023/03/05 00:27:31;;;;;;;64.10;34.53;;;;;;;;;;5028453;28;20033;-76
2023/03/05 00:29:57;;;;;;;70.57;39.22;;;;;;;;;;5028911;28;20387;-76
2023/03/05 00:32:23;;;;;;;62.00;36.13;;;;;;;;;;5027297;28;20425;-76
2023/03/05 00:34:49;;;;;;;69.00;34.97;;;;;;;;;;5034324;28;20084;-76
2023/03/05 00:37:15;;;;;;;62.72;35.35;;;;;;;;;;5020514;28;20045;-76
2023/03/05 00:39:41;;;;;;;54.08;31.80;;;;;;;;;;5029534;28;20923;-76
2023/03/05 00:42:07;;;;;;;53.13;30.85;;;;;;;;;;5027495;28;20045;-76
2023/03/05 00:44:33;;;;;;;52.83;29.23;;;;;;;;;;5025133;28;20088;-76
2023/03/05 00:46:59;;;;;;;53.22;30.98;;;;;;;;;;5028802;28;20029;-76
2023/03/05 00:49:25;;;;;;;56.75;31.60;;;;;;;;;;5027960;28;20474;-76
2023/03/05 00:51:51;;;;;;;57.95;31.45;;;;;;;;;;5025536;28;20037;-76
2023/03/05 00:54:17;;;;;;;56.42;32.05;;;;;;;;;;5022145;28;20037;-76
2023/03/05 00:56:44;;;;;;;51.58;30.00;;;;;;;;;;5028610;28;20037;-76
2023/03/05 00:59:10;;;;;;;55.72;29.83;;;;;;;;;;5027708;28;20042;-76
2023/03/05 01:01:36;;;;;;;54.10;29.48;;;;;;;;;;5017183;28;20065;-76
2023/03/05 01:04:02;;;;;;;51.58;29.33;;;;;;;;;;5022625;28;20057;-76
2023/03/05 01:06:28;;;;;;;56.55;30.70;;;;;;;;;;5026597;28;20033;-76
2023/03/05 01:08:55;;;;;;;52.72;31.80;;;;;;;;;;5026621;28;20478;-76
2023/03/05 01:11:21;;;;;;;49.70;26.95;;;;;;;;;;5026569;28;20022;-76
2023/03/05 01:13:47;;;;;;;54.47;29.75;;;;;;;;;;5039418;28;20546;-76
2023/03/05 01:16:13;;;;;;;52.33;27.95;;;;;;;;;;5025373;28;20494;-76
2023/03/05 01:18:40;;;;;;;46.30;27.08;;;;;;;;;;5027767;28;20073;-76
2023/03/05 01:21:06;;;;;;;51.67;30.50;;;;;;;;;;5029927;28;20475;-76
2023/03/05 01:23:34;;;;;;;45.97;27.33;;;;;;;;;;5029950;28;20045;-76
2023/03/05 01:26:00;;;;;;;47.45;26.08;;;;;;;;;;5025364;28;20484;-76
2023/03/05 01:28:27;;;;;;;48.60;26.88;;;;;;;;;;5030785;28;20431;-76
2023/03/05 01:30:53;;;;;;;50.47;25.60;;;;;;;;;;5026079;28;20103;-76
2023/03/05 01:33:19;;;;;;;46.17;24.95;;;;;;;;;;5028187;28;20056;-76
2023/03/05 01:35:46;;;;;;;51.97;25.75;;;;;;;;;;5029733;28;20132;-76
2023/03/05 01:38:12;;;;;;;48.47;27.05;;;;;;;;;;5028347;28;20451;-76
2023/03/05 01:40:38;;;;;;;45.92;23.80;;;;;;;;;;5036064;28;20364;-76
2023/03/05 01:43:10;;;;;;;49.25;24.90;;;;;;;;;;5026442;28;20044;-76
2023/03/05 01:45:36;;;;;;;44.33;23.80;;;;;;;;;;5031344;28;20104;-76
2023/03/05 01:48:02;;;;;;;43.88;25.08;;;;;;;;;;5030831;28;20414;-76
2023/03/05 01:50:28;;;;;;;45.58;23.98;;;;;;;;;;5028215;28;20405;-76
2023/03/05 01:53:00;;;;;;;42.15;24.67;;;;;;;;;;5022513;28;20124;-76
2023/03/05 01:55:28;;;;;;;47.33;22.65;;;;;;;;;;5027799;28;20037;-76
2023/03/05 01:58:02;;;;;;;44.13;25.58;;;;;;;;;;5026825;28;20038;-76
2023/03/05 02:00:34;;;;;;;44.22;25.30;;;;;;;;;;5035927;28;20072;-76
2023/03/05 02:03:05;;;;;;;51.13;25.95;;;;;;;;;;5028796;28;20045;-76
2023/03/05 02:05:33;;;;;;;46.00;24.73;;;;;;;;;;5023776;28;20049;-76
2023/03/05 02:08:00;;;;;;;44.40;25.40;;;;;;;;;;5030703;28;20034;-76
2023/03/05 02:10:27;;;;;;;50.60;25.88;;;;;;;;;;5035211;28;20455;-76
2023/03/05 02:12:55;;;;;;;47.50;26.33;;;;;;;;;;5031104;28;20044;-76
2023/03/05 02:15:21;;;;;;;44.58;25.50;;;;;;;;;;5021155;28;20034;-76
2023/03/05 02:17:47;;;;;;;45.35;26.00;;;;;;;;;;5029017;28;20038;-76
2023/03/05 02:20:21;;;;;;;50.75;28.35;;;;;;;;;;5028514;28;20033;-76
2023/03/05 02:22:47;;;;;;;47.47;26.40;;;;;;;;;;5025487;28;20037;-76
2023/03/05 02:25:16;;;;;;;52.25;26.15;;;;;;;;;;5030803;28;20026;-76
2023/03/05 02:27:43;;;;;;;44.58;26.90;;;;;;;;;;5025132;28;20038;-76
2023/03/05 02:30:10;;;;;;;49.47;25.63;;;;;;;;;;5021416;28;20033;-76
2023/03/05 02:32:36;;;;;;;46.67;23.60;;;;;;;;;;5016278;28;20929;-77
2023/03/05 02:35:02;;;;;;;43.53;24.70;;;;;;;;;;5026200;28;20057;-77
2023/03/05 02:37:28;;;;;;;50.75;27.55;;;;;;;;;;5026741;28;20033;-76
2023/03/05 02:39:54;;;;;;;45.45;26.55;;;;;;;;;;5019915;28;20043;-76
2023/03/05 02:42:20;;;;;;;44.67;23.90;;;;;;;;;;5041369;28;20080;-76
2023/03/05 02:44:46;;;;;;;45.15;25.42;;;;;;;;;;5024548;28;20067;-76
2023/03/05 02:47:12;;;;;;;47.05;27.20;;;;;;;;;;5029855;28;20034;-76
2023/03/05 02:49:38;;;;;;;45.47;24.60;;;;;;;;;;5030284;28;20038;-76
2023/03/05 02:52:04;;;;;;;46.78;24.20;;;;;;;;;;5033786;28;20045;-76
2023/03/05 02:54:30;;;;;;;44.50;25.13;;;;;;;;;;5023521;28;20033;-76
2023/03/05 02:56:56;;;;;;;47.78;26.27;;;;;;;;;;5030065;28;20041;-76
2023/03/05 02:59:22;;;;;;;47.33;26.27;;;;;;;;;;5019366;28;20076;-76
2023/03/05 03:01:48;;;;;;;44.33;24.77;;;;;;;;;;5023288;28;20041;-76
2023/03/05 03:04:14;;;;;;;46.05;25.67;;;;;;;;;;5025729;28;20050;-76
2023/03/05 03:06:40;;;;;;;44.67;24.33;;;;;;;;;;5024155;28;20597;-76
2023/03/05 03:09:06;;;;;;;43.70;25.25;;;;;;;;;;5028868;28;20034;-76
2023/03/05 03:11:32;;;;;;;47.53;27.85;;;;;;;;;;5023945;28;20034;-76
2023/03/05 03:13:59;;;;;;;48.47;27.75;;;;;;;;;;5028724;28;20124;-76
2023/03/05 03:16:25;;;;;;;47.65;25.85;;;;;;;;;;5023843;28;20041;-76
2023/03/05 03:18:51;;;;;;;47.05;26.67;;;;;;;;;;5022641;28;20041;-76
2023/03/05 03:21:18;;;;;;;47.40;24.23;;;;;;;;;;5020688;28;20045;-76
2023/03/05 03:23:44;;;;;;;46.60;25.02;;;;;;;;;;5030301;28;20183;-76
2023/03/05 03:26:10;;;;;;;43.63;22.67;;;;;;;;;;5018656;28;20144;-76
2023/03/05 03:28:36;;;;;;;43.20;23.17;;;;;;;;;;5029687;28;20142;-76
2023/03/05 03:31:02;;;;;;;43.58;22.80;;;;;;;;;;5027090;28;20613;-76
2023/03/05 03:33:28;;;;;;;44.28;23.67;;;;;;;;;;5019732;28;20171;-76
2023/03/05 03:35:54;;;;;;;38.60;22.13;;;;;;;;;;5027850;28;20147;-76
2023/03/05 03:38:20;;;;;;;41.60;22.88;;;;;;;;;;5025722;28;20034;-76
2023/03/05 03:40:46;;;;;;;42.35;21.52;;;;;;;;;;5013538;28;20096;-76
2023/03/05 03:43:12;;;;;;;46.08;24.77;;;;;;;;;;5032809;28;20057;-76
2023/03/05 03:45:42;;;;;;;36.58;21.00;;;;;;;;;;5019959;28;20029;-76
2023/03/05 03:48:08;;;;;;;41.20;21.67;;;;;;;;;;5023674;28;20414;-76
2023/03/05 03:50:34;;;;;;;41.33;22.05;;;;;;;;;;5024686;28;20603;-76
2023/03/05 03:53:00;;;;;;;37.72;20.38;;;;;;;;;;5029306;28;20044;-76
2023/03/05 03:55:26;;;;;;;40.03;22.10;;;;;;;;;;5019319;28;20030;-76
2023/03/05 03:57:52;;;;;;;44.50;24.85;;;;;;;;;;5019139;28;20037;-76
2023/03/05 04:00:19;;;;;;;38.28;22.50;;;;;;;;;;5022455;28;20040;-76
2023/03/05 04:02:45;;;;;;;45.88;22.88;;;;;;;;;;5023935;28;20038;-76
2023/03/05 04:05:11;;;;;;;43.42;22.88;;;;;;;;;;5029326;28;20052;-76
2023/03/05 04:07:37;;;;;;;41.90;24.13;;;;;;;;;;5024230;28;20029;-76
2023/03/05 04:10:03;;;;;;;45.33;23.17;;;;;;;;;;5029418;28;20154;-76
2023/03/05 04:12:29;;;;;;;40.35;21.98;;;;;;;;;;5023293;28;20175;-76
2023/03/05 04:14:55;;;;;;;41.45;23.85;;;;;;;;;;5017314;28;20487;-76
2023/03/05 04:17:21;;;;;;;43.17;22.38;;;;;;;;;;5024919;28;20033;-76
2023/03/05 04:19:47;;;;;;;43.58;22.73;;;;;;;;;;5026756;28;20079;-76
2023/03/05 04:22:17;;;;;;;44.88;23.13;;;;;;;;;;5021886;28;20095;-76
2023/03/05 04:24:43;;;;;;;47.42;25.40;;;;;;;;;;5026228;28;20029;-76
2023/03/05 04:27:09;;;;;;;42.35;22.80;;;;;;;;;;5015032;28;20041;-76
2023/03/05 04:29:35;;;;;;;42.28;20.98;;;;;;;;;;5036762;28;20694;-76
2023/03/05 04:32:02;;;;;;;42.83;23.48;;;;;;;;;;5019632;28;20069;-76
2023/03/05 04:34:28;;;;;;;40.05;22.50;;;;;;;;;;5020013;28;20042;-76
2023/03/05 04:36:54;;;;;;;43.83;23.63;;;;;;;;;;5027341;28;20041;-76
2023/03/05 04:39:20;;;;;;;44.92;22.95;;;;;;;;;;5024738;28;20052;-76
2023/03/05 04:41:46;;;;;;;45.53;23.52;;;;;;;;;;5028758;28;20026;-76
2023/03/05 04:44:12;;;;;;;40.83;22.73;;;;;;;;;;5023030;28;20109;-76
2023/03/05 04:46:39;;;;;;;41.00;22.60;;;;;;;;;;5024793;28;20025;-76
2023/03/05 04:49:05;;;;;;;44.03;23.30;;;;;;;;;;5031161;28;20352;-77
2023/03/05 04:51:31;;;;;;;40.58;21.45;;;;;;;;;;5027995;28;20037;-76
2023/03/05 04:53:57;;;;;;;41.30;23.13;;;;;;;;;;5015037;28;20459;-77
2023/03/05 04:56:23;;;;;;;39.63;20.75;;;;;;;;;;5029720;28;20036;-76
2023/03/05 04:58:49;;;;;;;37.97;22.75;;;;;;;;;;5031217;28;20037;-76
2023/03/05 05:01:15;;;;;;;42.45;21.92;;;;;;;;;;5029864;28;20040;-76
2023/03/05 05:03:41;;;;;;;43.25;24.27;;;;;;;;;;5030810;28;20458;-76
2023/03/05 05:06:07;;;;;;;46.20;25.35;;;;;;;;;;5020232;28;20057;-76
2023/03/05 05:08:33;;;;;;;39.05;22.60;;;;;;;;;;5030756;28;20060;-76
2023/03/05 05:11:00;;;;;;;37.92;20.67;;;;;;;;;;5024297;28;20038;-76
2023/03/05 05:13:27;;;;;;;41.95;20.88;;;;;;;;;;5028339;28;20033;-76
2023/03/05 05:15:53;;;;;;;41.33;22.58;;;;;;;;;;5035116;28;20040;-76
2023/03/05 05:18:19;;;;;;;46.03;21.75;;;;;;;;;;5031598;28;20030;-77
2023/03/05 05:20:45;;;;;;;37.80;21.33;;;;;;;;;;5030173;28;20179;-76
2023/03/05 05:23:11;;;;;;;44.90;23.52;;;;;;;;;;5022220;28;20033;-76
2023/03/05 05:25:37;;;;;;;41.47;23.65;;;;;;;;;;5027742;28;20513;-76
2023/03/05 05:28:03;;;;;;;45.47;25.60;;;;;;;;;;5029492;28;20042;-76
2023/03/05 05:30:29;;;;;;;38.72;22.40;;;;;;;;;;5032801;28;20612;-76
2023/03/05 05:32:55;;;;;;;36.95;21.95;;;;;;;;;;5032240;28;20542;-76
2023/03/05 05:35:21;;;;;;;43.42;23.40;;;;;;;;;;5022309;28;20030;-76
2023/03/05 05:37:47;;;;;;;43.65;23.20;;;;;;;;;;5026277;28;20032;-76
2023/03/05 05:40:13;;;;;;;43.28;22.63;;;;;;;;;;5030209;28;20407;-76
2023/03/05 05:42:39;;;;;;;40.80;21.98;;;;;;;;;;5023740;28;20030;-76
2023/03/05 05:45:06;;;;;;;46.78;23.77;;;;;;;;;;5026103;28;20022;-76
2023/03/05 05:47:32;;;;;;;49.15;26.60;;;;;;;;;;5030226;28;20546;-76
2023/03/05 05:49:58;;;;;;;52.97;27.15;;;;;;;;;;5029704;28;20037;-76
2023/03/05 05:52:24;;;;;;;55.95;27.30;;;;;;;;;;5024679;28;20248;-76
2023/03/05 05:54:50;;;;;;;47.67;26.23;;;;;;;;;;5033776;28;20126;-76
2023/03/05 05:57:16;;;;;;;45.08;25.60;;;;;;;;;;5026901;28;20114;-76
2023/03/05 05:59:42;;;;;;;57.00;28.60;;;;;;;;;;5031815;28;20035;-76
2023/03/05 06:02:09;;;;;;;56.60;29.90;;;;;;;;;;5026553;28;20033;-76
2023/03/05 06:04:35;;;;;;;50.42;26.13;;;;;;;;;;5025836;28;20041;-76
2023/03/05 06:07:02;;;;;;;47.47;25.60;;;;;;;;;;5022641;28;20113;-76
2023/03/05 06:09:28;;;;;;;46.95;26.15;;;;;;;;;;5024279;28;20071;-76
2023/03/05 06:11:54;;;;;;;45.88;24.40;;;;;;;;;;5023376;28;20432;-77
2023/03/05 06:14:20;;;;;;;44.53;25.27;;;;;;;;;;5042045;28;20033;-76
2023/03/05 06:16:46;;;;;;;44.92;23.73;;;;;;;;;;5025138;28;20029;-77
2023/03/05 06:19:13;;;;;;;41.70;22.77;;;;;;;;;;5025794;28;20467;-77
2023/03/05 06:21:39;;;;;;;46.10;23.85;;;;;;;;;;5029101;28;20029;-77
2023/03/05 06:24:05;;;;;;;46.75;23.92;;;;;;;;;;5037913;28;20029;-76
2023/03/05 06:26:31;;;;;;;42.15;23.63;;;;;;;;;;5034237;28;20037;-76
2023/03/05 06:28:58;;;;;;;39.70;22.52;;;;;;;;;;5027851;28;20037;-76
2023/03/05 06:31:24;;;;;;;45.72;23.98;;;;;;;;;;5036430;28;20889;-76
2023/03/05 06:33:51;;;;;;;44.45;23.52;;;;;;;;;;5034697;28;20033;-76
2023/03/05 06:36:18;;;;;;;43.63;23.92;;;;;;;;;;5034924;28;20479;-76
2023/03/05 06:38:44;;;;;;;41.13;22.40;;;;;;;;;;5027319;28;20028;-76
2023/03/05 06:41:11;;;;;;;48.53;24.38;;;;;;;;;;5031048;28;20472;-77
2023/03/05 06:43:38;;;;;;;41.10;23.23;;;;;;;;;;5037391;28;20021;-77
2023/03/05 06:46:10;;;;;;;46.55;22.63;;;;;;;;;;5036542;28;20053;-76
2023/03/05 06:48:36;;;;;;;31.88;17.20;;;;;;;;;;5026807;28;20029;-77
2023/03/05 06:51:02;;;;;;;44.05;21.95;;;;;;;;;;5031280;28;20041;-77
2023/03/05 06:53:28;;;;;;;45.10;24.17;;;;;;;;;;5034707;28;20025;-76
2023/03/05 06:55:54;;;;;;;43.97;23.55;;;;;;;;;;5042750;28;20045;-77
2023/03/05 06:58:20;;;;;;;45.78;22.77;;;;;;;;;;5044130;28;20475;-77
2023/03/05 07:00:46;;;;;;;38.45;21.45;;;;;;;;;;5032430;28;20044;-77
2023/03/05 07:03:12;;;;;;;41.03;23.30;;;;;;;;;;5042749;28;20071;-77
2023/03/05 07:05:39;;;;;;;42.28;23.50;;;;;;;;;;5028244;28;20049;-77
2023/03/05 07:08:05;;;;;;;43.25;23.88;;;;;;;;;;5028967;28;20034;-77
2023/03/05 07:10:31;;;;;;;39.75;22.38;;;;;;;;;;5028375;28;20084;-77
2023/03/05 07:12:57;;;;;;;47.33;23.70;;;;;;;;;;5028618;28;20082;-77
2023/03/05 07:15:23;;;;;;;42.70;25.42;;;;;;;;;;5026995;28;20033;-76
2023/03/05 07:17:49;;;;;;;46.80;25.05;;;;;;;;;;5027233;28;20033;-76
2023/03/05 07:20:15;;;;;;;55.95;28.10;;;;;;;;;;5033357;28;20048;-76
2023/03/05 07:22:42;;;;;;;53.88;27.88;;;;;;;;;;5027941;28;20480;-76
2023/03/05 07:25:08;;;;;;;53.00;27.17;;;;;;;;;;5024484;28;20132;-77
2023/03/05 07:27:35;;;;;;;47.55;27.30;;;;;;;;;;5030676;28;20044;-77
2023/03/05 07:30:00;;;;;;;52.58;29.17;;;;;;;;;;5024057;28;20043;-77
2023/03/05 07:32:26;;;;;;;46.88;26.40;;;;;;;;;;5030911;28;20116;-76
2023/03/05 07:34:52;;;;;;;47.33;26.85;;;;;;;;;;5034445;28;20033;-76
2023/03/05 07:37:18;;;;;;;50.92;26.95;;;;;;;;;;5023848;28;20099;-76
2023/03/05 07:39:44;;;;;;;54.95;29.00;;;;;;;;;;5023747;28;20065;-76
2023/03/05 07:42:10;;;;;;;50.22;27.77;;;;;;;;;;5032622;28;20407;-77
2023/03/05 07:44:37;;;;;;;51.63;27.50;;;;;;;;;;5036139;28;20017;-76
2023/03/05 07:47:04;;;;;;;50.78;30.80;;;;;;;;;;5032899;28;20033;-76
2023/03/05 07:49:30;;;;;;;51.95;28.67;;;;;;;;;;5024953;28;20033;-76
2023/03/05 07:51:56;;;;;;;52.95;29.67;;;;;;;;;;5027697;28;20478;-76
2023/03/05 07:54:22;;;;;;;54.05;30.30;;;;;;;;;;5027760;28;20760;-76
2023/03/05 07:56:48;;;;;;;57.17;30.40;;;;;;;;;;5039680;28;20064;-76
2023/03/05 07:59:14;;;;;;;57.00;30.95;;;;;;;;;;5038123;28;20081;-76
2023/03/05 08:01:40;;;;;;;54.35;29.20;;;;;;;;;;5029159;28;20040;-76
2023/03/05 08:04:07;;;;;;;54.03;29.83;;;;;;;;;;5035910;28;20463;-76
2023/03/05 08:06:33;;;;;;;52.17;29.38;;;;;;;;;;5034130;28;20037;-77
2023/03/05 08:08:59;;;;;;;47.70;28.10;;;;;;;;;;5030433;28;20063;-76
2023/03/05 08:11:27;;;;;;;50.55;30.23;;;;;;;;;;5023400;28;20045;-77
2023/03/05 08:13:53;;;;;;;51.92;28.17;;;;;;;;;;5035979;28;20060;-77
2023/03/05 08:16:20;;;;;;;48.35;29.95;;;;;;;;;;5026897;28;20482;-76
2023/03/05 08:18:47;;;;;;;56.08;31.75;;;;;;;;;;5033249;28;20037;-76
2023/03/05 08:21:20;;;;;;;54.33;32.90;;;;;;;;;;5031707;28;20034;-77
2023/03/05 08:23:46;;;;;;;52.67;30.27;;;;;;;;;;5031930;28;20857;-77
2023/03/05 08:26:16;;;;;;;48.92;31.27;;;;;;;;;;5031297;28;20033;-78
2023/03/05 08:28:43;;;;;;;56.65;33.90;;;;;;;;;;5028993;28;20027;-77
2023/03/05 08:31:12;;;;;;;54.33;30.50;;;;;;;;;;5036469;28;20421;-77
2023/03/05 08:33:38;;;;;;;55.42;32.30;;;;;;;;;;5034967;28;20666;-77
2023/03/05 08:36:04;;;;;;;55.28;30.08;;;;;;;;;;5027561;28;20042;-77
2023/03/05 08:38:30;;;;;;;52.85;30.58;;;;;;;;;;5032050;28;20037;-77
2023/03/05 08:40:56;;;;;;;49.97;31.10;;;;;;;;;;5041357;28;20033;-77
2023/03/05 08:43:22;;;;;;;55.65;30.80;;;;;;;;;;5042590;28;20116;-77
2023/03/05 08:45:50;;;;;;;60.33;33.67;;;;;;;;;;5038163;28;20100;-76
2023/03/05 08:48:16;;;;;;;50.70;30.25;;;;;;;;;;5032523;28;20117;-77
2023/03/05 08:50:42;;;;;;;61.20;31.73;;;;;;;;;;5038569;28;20792;-77
2023/03/05 08:53:08;;;;;;;61.53;32.75;;;;;;;;;;5025485;28;20033;-77
2023/03/05 08:55:34;;;;;;;54.50;31.75;;;;;;;;;;5032407;28;20030;-76
2023/03/05 08:58:00;;;;;;;50.15;30.27;;;;;;;;;;5025136;28;20046;-76
2023/03/05 09:00:25;;;;;;;51.60;30.40;;;;;;;;;;5046397;28;20688;-76
2023/03/05 09:02:51;;;;;;;54.47;31.77;;;;;;;;;;5015713;28;20042;-77
2023/03/05 09:05:18;;;;;;;51.85;30.05;;;;;;;;;;5039743;28;20057;-77
2023/03/05 09:07:44;;;;;;;47.20;28.73;;;;;;;;;;5029182;28;20038;-76
2023/03/05 09:10:12;;;;;;;56.35;31.20;;;;;;;;;;5034852;28;20040;-76
2023/03/05 09:12:38;;;;;;;52.17;30.27;;;;;;;;;;5038145;28;20041;-77
2023/03/05 09:15:08;;;;;;;60.90;31.98;;;;;;;;;;5015698;28;20037;-76
2023/03/05 09:17:38;;;;;;;54.03;30.20;;;;;;;;;;5026867;28;20045;-77
2023/03/05 09:20:05;;;;;;;52.40;31.75;;;;;;;;;;5020015;28;20034;-77
2023/03/05 09:22:31;;;;;;;52.40;31.38;;;;;;;;;;5032086;28;20034;-77
2023/03/05 09:24:57;;;;;;;53.53;30.90;;;;;;;;;;5023933;28;20459;-77
2023/03/05 09:27:23;;;;;;;49.17;29.63;;;;;;;;;;5027121;28;20039;-76
2023/03/05 09:29:49;;;;;;;53.42;30.67;;;;;;;;;;5034353;28;20037;-77
2023/03/05 09:32:15;;;;;;;44.63;28.08;;;;;;;;;;5014726;28;20427;-78
2023/03/05 09:34:41;;;;;;;55.42;30.92;;;;;;;;;;5030692;28;20080;-76
2023/03/05 09:37:08;;;;;;;48.58;28.65;;;;;;;;;;5025725;28;20041;-77
2023/03/05 09:39:34;;;;;;;49.45;28.98;;;;;;;;;;5025027;28;20040;-76
2023/03/05 09:42:12;;;;;;;48.85;29.65;;;;;;;;;;5024073;28;20041;-77
2023/03/05 09:44:40;;;;;;;51.35;30.15;;;;;;;;;;5028114;28;20033;-77
2023/03/05 09:47:20;;;;;;;48.28;29.58;;;;;;;;;;5024098;28;20034;-76
2023/03/05 09:49:55;;;;;;;52.10;29.88;;;;;;;;;;5019271;28;20030;-77
2023/03/05 09:52:23;;;;;;;49.08;30.48;;;;;;;;;;5032669;28;20490;-76
2023/03/05 09:54:53;;;;;;;52.72;30.52;;;;;;;;;;5037493;28;20374;-76
2023/03/05 09:57:23;;;;;;;51.58;30.50;;;;;;;;;;5032695;28;20039;-76
2023/03/05 09:59:51;;;;;;;49.53;29.55;;;;;;;;;;5031372;28;20378;-76
2023/03/05 10:02:19;;;;;;;51.25;30.05;;;;;;;;;;5030536;28;20474;-76
2023/03/05 10:04:54;;;;;;;46.00;30.20;;;;;;;;;;5039253;28;20526;-76
2023/03/05 10:07:31;;;;;;;50.53;30.00;;;;;;;;;;5017996;28;20038;-76
2023/03/05 10:09:57;;;;;;;49.35;29.88;;;;;;;;;;5024454;28;20030;-76
2023/03/05 10:12:42;;;;;;;53.22;30.35;;;;;;;;;;5017561;28;20033;-76
2023/03/05 10:15:12;;;;;;;51.60;29.45;;;;;;;;;;5024845;28;20025;-76
2023/03/05 10:17:57;;;;;;;48.00;30.27;;;;;;;;;;5025093;28;20053;-77
2023/03/05 10:20:42;;;;;;;51.90;30.00;;;;;;;;;;5016469;28;20099;-76
2023/03/05 10:23:08;;;;;;;52.83;32.25;;;;;;;;;;5030809;28;20025;-77
2023/03/05 10:25:52;;;;;;;48.15;30.40;;;;;;;;;;5033156;28;20475;-77
2023/03/05 10:28:24;;;;;;;51.75;30.38;;;;;;;;;;5025530;28;20041;-77
2023/03/05 10:30:53;;;;;;;;;;;;;;;;;;5035250;28;20038;-76
2023/03/05 10:33:19;;;;;;;51.00;30.27;;;;;;;;;;5027028;28;20424;-76
2023/03/05 10:35:48;;;;;;;53.40;32.00;;;;;;;;;;5030495;28;20029;-77
2023/03/05 10:38:37;;;;;;;54.75;30.95;;;;;;;;;;5028481;28;20033;-76
2023/03/05 10:41:07;;;;;;;49.45;29.83;;;;;;;;;;5024212;28;20057;-76
2023/03/05 10:43:33;;;;;;;51.13;30.20;;;;;;;;;;5027343;28;20036;-76
2023/03/05 10:46:00;;;;;;;49.25;30.52;;;;;;;;;;5024297;28;20041;-76
2023/03/05 10:48:32;;;;;;;50.72;31.85;;;;;;;;;;5032698;28;20107;-76
2023/03/05 10:51:08;;;;;;;53.28;31.52;;;;;;;;;;5023890;28;20037;-77
2023/03/05 10:53:43;;;;;;;46.90;28.23;;;;;;;;;;5016282;28;20109;-76
2023/03/05 10:56:10;;;;;;;52.53;31.25;;;;;;;;;;5023643;28;20489;-76
2023/03/05 10:58:36;;;;;;;51.75;30.75;;;;;;;;;;5028562;28;20037;-76
2023/03/05 11:01:11;;;;;;;54.53;32.97;;;;;;;;;;5017866;28;20037;-76
2023/03/05 11:03:47;;;;;;;52.00;31.60;;;;;;;;;;5027093;28;20052;-76
2023/03/05 11:06:13;;;;;;;47.75;30.00;;;;;;;;;;5021976;28;20087;-76
2023/03/05 11:08:39;;;;;;;52.00;31.23;;;;;;;;;;5030827;28;20491;-76
2023/03/05 11:11:21;;;;;;;48.88;30.45;;;;;;;;;;5026573;28;20053;-76
2023/03/05 11:13:47;;;;;;;47.45;31.50;;;;;;;;;;5027772;28;20045;-76
2023/03/05 11:16:18;;;;;;;46.97;30.02;;;;;;;;;;5026680;28;20037;-76
2023/03/05 11:18:45;;;;;;;48.47;31.35;;;;;;;;;;5019445;28;20047;-76
2023/03/05 11:21:18;;;;;;;50.17;30.90;;;;;;;;;;5025025;28;20704;-76
2023/03/05 11:23:44;;;;;;;52.45;32.10;;;;;;;;;;5024143;28;20104;-76
2023/03/05 11:26:13;;;;;;;51.97;31.88;;;;;;;;;;5033127;28;20022;-76
2023/03/05 11:28:41;;;;;;;52.00;30.92;;;;;;;;;;5024080;28;20037;-76
2023/03/05 11:31:07;;;;;;;50.17;29.48;;;;;;;;;;5030824;28;20745;-76
2023/03/05 11:33:34;;;;;;;47.45;30.70;;;;;;;;;;5030871;28;20745;-76
2023/03/05 11:36:18;;;;;;;46.75;30.75;;;;;;;;;;5024879;28;20037;-76
2023/03/05 11:38:53;;;;;;;48.10;30.23;;;;;;;;;;5022777;28;20043;-76
2023/03/05 11:41:22;;;;;;;51.25;31.40;;;;;;;;;;5022381;28;20029;-76
2023/03/05 11:43:50;;;;;;;48.25;30.15;;;;;;;;;;5026900;28;20036;-76
2023/03/05 11:46:17;;;;;;;52.35;31.77;;;;;;;;;;5028784;28;20037;-76
2023/03/05 11:48:44;;;;;;;48.65;30.90;;;;;;;;;;5022870;28;20036;-76
2023/03/05 11:51:31;;;;;;;51.53;31.50;;;;;;;;;;5023383;28;20036;-76
2023/03/05 11:54:01;;;;;;;53.08;31.70;;;;;;;;;;5022719;28;20040;-76
2023/03/05 11:56:29;;;;;;;52.45;31.17;;;;;;;;;;5025565;28;20544;-76
2023/03/05 11:59:00;;;;;;;50.78;30.50;;;;;;;;;;5028573;28;20073;-76
2023/03/05 12:01:28;;;;;;;48.60;30.42;;;;;;;;;;5024616;28;20026;-76
2023/03/05 12:03:55;;;;;;;48.15;29.92;;;;;;;;;;5031455;28;20029;-76
2023/03/05 12:06:21;;;;;;;50.28;32.05;;;;;;;;;;5028851;28;20071;-76
2023/03/05 12:08:49;;;;;;;49.55;30.00;;;;;;;;;;5028444;28;20037;-76
2023/03/05 12:11:17;;;;;;;50.70;30.55;;;;;;;;;;5025480;28;20038;-77
2023/03/05 12:13:46;;;;;;;49.80;28.42;;;;;;;;;;5026245;28;20037;-76
2023/03/05 12:16:16;;;;;;;44.72;28.90;;;;;;;;;;5034000;28;20048;-76
2023/03/05 12:18:45;;;;;;;49.55;29.98;;;;;;;;;;5024823;28;20061;-76
2023/03/05 12:21:22;;;;;;;46.83;30.23;;;;;;;;;;5033916;28;20033;-76
2023/03/05 12:23:50;;;;;;;47.35;30.30;;;;;;;;;;5019982;28;20091;-76
2023/03/05 12:26:16;;;;;;;47.47;30.60;;;;;;;;;;5024199;28;20040;-76
2023/03/05 12:28:48;;;;;;;52.10;29.15;;;;;;;;;;5017540;28;20026;-76
2023/03/05 12:31:26;;;;;;;51.42;31.65;;;;;;;;;;5027883;28;20040;-76
2023/03/05 12:33:53;;;;;;;54.95;35.30;;;;;;;;;;5026195;28;20045;-76
2023/03/05 12:36:18;;;;;;;54.55;34.13;;;;;;;;;;5026623;28;20110;-76
2023/03/05 12:38:46;;;;;;;51.45;33.90;;;;;;;;;;5023874;28;20467;-76
2023/03/05 12:41:21;;;;;;;54.70;32.70;;;;;;;;;;5024046;28;20030;-75
2023/03/05 12:44:06;;;;;;;53.05;32.25;;;;;;;;;;5030056;28;20423;-76
2023/03/05 12:46:34;;;;;;;52.03;31.92;;;;;;;;;;5034819;28;20112;-76
2023/03/05 12:49:25;;;;;;;55.53;34.30;;;;;;;;;;5032955;28;20454;-76
2023/03/05 12:51:55;;;;;;;49.25;31.55;;;;;;;;;;5025831;28;20159;-76
2023/03/05 12:54:21;;;;;;;52.58;31.13;;;;;;;;;;5029322;28;20037;-77
2023/03/05 12:56:47;;;;;;;47.72;30.55;;;;;;;;;;5028340;28;20057;-76
2023/03/05 12:59:16;;;;;;;52.88;33.17;;;;;;;;;;5031679;28;20033;-76
2023/03/05 13:01:45;;;;;;;49.15;29.95;;;;;;;;;;5026853;28;20045;-77
2023/03/05 13:04:16;;;;;;;51.08;32.35;;;;;;;;;;5024991;28;20033;-76
2023/03/05 13:06:42;;;;;;;51.47;30.80;;;;;;;;;;5040186;28;20041;-76
2023/03/05 13:09:08;;;;;;;53.40;30.73;;;;;;;;;;5020263;28;20480;-76
2023/03/05 13:11:36;;;;;;;54.80;32.70;;;;;;;;;;5020591;28;20068;-76
2023/03/05 13:14:02;;;;;;;51.47;31.65;;;;;;;;;;5026885;28;20078;-76
2023/03/05 13:16:38;;;;;;;52.60;32.25;;;;;;;;;;5028837;28;20064;-76
2023/03/05 13:19:14;;;;;;;56.05;31.75;;;;;;;;;;5044100;28;20045;-76
2023/03/05 13:21:40;;;;;;;51.90;34.08;;;;;;;;;;5028399;28;20030;-76
2023/03/05 13:24:14;;;;;;;47.63;29.25;;;;;;;;;;5030806;28;20033;-76
2023/03/05 13:26:40;;;;;;;51.10;31.67;;;;;;;;;;5029878;28;20029;-75
2023/03/05 13:29:06;;;;;;;56.92;32.17;;;;;;;;;;5033766;28;20044;-76
2023/03/05 13:31:34;;;;;;;49.90;32.33;;;;;;;;;;5032436;28;20029;-76
2023/03/05 13:34:08;;;;;;;49.15;30.83;;;;;;;;;;5033128;28;20038;-76
2023/03/05 13:36:34;;;;;;;54.00;33.17;;;;;;;;;;5019903;28;20033;-76
2023/03/05 13:39:01;;;;;;;51.42;32.10;;;;;;;;;;5032363;28;20044;-76
2023/03/05 13:41:27;;;;;;;49.75;30.13;;;;;;;;;;5031126;28;20112;-76
2023/03/05 13:43:55;;;;;;;52.30;31.85;;;;;;;;;;5033890;28;20033;-76
2023/03/05 13:46:27;;;;;;;50.85;30.27;;;;;;;;;;5037620;28;20036;-76
2023/03/05 13:48:53;;;;;;;;;;;;;;;;;;5036077;28;20041;-76
2023/03/05 13:51:19;;;;;;;53.72;30.75;;;;;;;;;;5025466;28;19971;-76
2023/03/05 13:53:45;;;;;;;54.40;32.60;;;;;;;;;;5017730;28;20029;-76
2023/03/05 13:56:13;;;;;;;49.22;31.58;;;;;;;;;;5033819;28;20037;-76
2023/03/05 13:58:43;;;;;;;50.50;31.92;;;;;;;;;;5035483;28;20386;-77
2023/03/05 14:01:20;;;;;;;51.65;32.28;;;;;;;;;;5027209;28;20095;-76
2023/03/05 14:03:49;;;;;;;46.58;30.17;;;;;;;;;;5034016;28;20383;-76
2023/03/05 14:06:17;;;;;;;50.35;29.50;;;;;;;;;;5028943;28;20096;-76
2023/03/05 14:08:43;;;;;;;47.78;27.15;;;;;;;;;;5028501;28;20026;-76
2023/03/05 14:11:13;;;;;;;49.25;30.55;;;;;;;;;;5028097;28;20883;-76
2023/03/05 14:13:40;;;;;;;48.65;30.88;;;;;;;;;;5029654;28;20076;-76
2023/03/05 14:16:08;;;;;;;49.03;31.20;;;;;;;;;;5029448;28;20040;-76
2023/03/05 14:18:34;;;;;;;51.38;30.27;;;;;;;;;;5021788;28;20423;-76
2023/03/05 14:21:05;;;;;;;48.47;31.67;;;;;;;;;;5033346;28;20041;-76